createdAt,value
2022-08-29T00:00:38.414Z,100.00
2022-08-29T00:06:03.253Z,100.00
2022-08-29T00:11:26.514Z,100.00
2022-08-29T00:16:48.829Z,100.00
2022-08-29T00:22:11.637Z,100.00
2022-08-29T00:27:33.846Z,100.00
2022-08-29T00:32:57.261Z,100.00
2022-08-29T00:38:22.908Z,100.00
2022-08-29T00:43:49.720Z,100.00
2022-08-29T00:49:16.329Z,100.00
2022-08-29T00:54:39.473Z,100.00
2022-08-29T01:00:04.281Z,100.00
2022-08-29T01:05:30.390Z,100.00
2022-08-29T01:11:11.837Z,100.00
2022-08-29T01:16:37.524Z,100.00
2022-08-29T01:22:12.933Z,100.00
2022-08-29T01:27:38.397Z,100.00
2022-08-29T01:33:02.205Z,100.00
2022-08-29T01:38:30.041Z,100.00
2022-08-29T01:43:57.569Z,100.00
2022-08-29T01:49:22.982Z,100.00
2022-08-29T01:54:47.000Z,100.00
2022-08-29T02:00:11.774Z,100.00
2022-08-29T02:05:35.558Z,100.00
2022-08-29T02:10:58.757Z,100.00
2022-08-29T02:16:22.369Z,100.00
2022-08-29T02:21:46.369Z,100.00
2022-08-29T02:27:09.702Z,100.00
2022-08-29T02:32:33.050Z,100.00
2022-08-29T02:37:56.139Z,100.00
2022-08-29T02:43:20.096Z,100.00
2022-08-29T02:48:42.316Z,100.00
2022-08-29T02:54:07.668Z,100.00
2022-08-29T02:59:29.857Z,100.00
2022-08-29T03:04:52.417Z,100.00
2022-08-29T03:10:16.578Z,100.00
2022-08-29T03:15:39.104Z,100.00
2022-08-29T03:21:02.541Z,100.00
2022-08-29T03:26:25.617Z,100.00
2022-08-29T03:31:48.470Z,100.00
2022-08-29T03:37:11.845Z,100.00
2022-08-29T03:42:34.211Z,100.00
2022-08-29T03:47:57.425Z,100.00
2022-08-29T03:53:19.690Z,100.00
2022-08-29T03:58:42.495Z,100.00
2022-08-29T04:04:04.902Z,100.00
2022-08-29T04:09:27.116Z,100.00
2022-08-29T04:14:49.651Z,100.00
2022-08-29T04:20:13.814Z,100.00
2022-08-29T04:25:37.978Z,100.00
2022-08-29T04:31:03.261Z,100.00
2022-08-29T04:36:26.416Z,100.00
2022-08-29T04:41:49.419Z,100.00
2022-08-29T04:47:12.214Z,100.00
2022-08-29T04:52:37.695Z,100.00
2022-08-29T04:58:01.437Z,100.00
2022-08-29T05:03:23.918Z,100.00
2022-08-29T05:08:48.387Z,100.00
2022-08-29T05:14:13.155Z,100.00
2022-08-29T05:19:35.445Z,100.00
2022-08-29T05:24:58.816Z,100.00
2022-08-29T05:30:35.047Z,100.00
2022-08-29T05:35:48.467Z,100.00
2022-08-29T05:41:11.621Z,100.00
2022-08-29T05:46:34.027Z,100.00
2022-08-29T05:51:58.201Z,100.00
2022-08-29T05:57:23.985Z,100.00
2022-08-29T06:02:46.542Z,100.00
2022-08-29T06:08:10.597Z,100.00
2022-08-29T06:13:33.431Z,100.00
2022-08-29T06:18:55.739Z,100.00
2022-08-29T06:24:18.899Z,100.00
2022-08-29T06:29:43.662Z,100.00
2022-08-29T06:35:07.429Z,100.00
2022-08-29T06:40:30.306Z,100.00
2022-08-29T06:45:55.256Z,100.00
2022-08-29T06:51:22.454Z,99.12
2022-08-29T06:56:45.827Z,96.21
2022-08-29T07:02:08.552Z,94.03
2022-08-29T07:07:30.803Z,92.65
2022-08-29T07:12:54.690Z,92.75
2022-08-29T07:18:17.216Z,91.96
2022-08-29T07:23:41.024Z,88.56
2022-08-29T07:29:07.515Z,87.70
2022-08-29T07:34:30.300Z,86.70
2022-08-29T07:39:52.569Z,84.88
2022-08-29T07:45:15.924Z,83.19
2022-08-29T07:50:39.461Z,83.61
2022-08-29T07:56:02.864Z,82.74
2022-08-29T08:01:26.005Z,82.58
2022-08-29T08:06:49.999Z,82.99
2022-08-29T08:12:13.149Z,81.07
2022-08-29T08:17:36.326Z,79.85
2022-08-29T08:23:00.278Z,78.10
2022-08-29T08:28:24.373Z,78.16
2022-08-29T08:33:49.146Z,78.43
2022-08-29T08:39:12.758Z,77.74
2022-08-29T08:44:40.056Z,78.40
2022-08-29T08:50:14.414Z,78.90
2022-08-29T08:56:01.929Z,78.32
2022-08-29T09:01:48.274Z,78.12
2022-08-29T09:07:56.413Z,74.47
2022-08-29T09:13:42.580Z,74.53
2022-08-29T09:19:09.725Z,74.98
2022-08-29T09:24:42.686Z,75.15
2022-08-29T09:30:10.236Z,76.31
2022-08-29T09:35:43.342Z,75.71
2022-08-29T09:41:15.465Z,72.80
2022-08-29T09:46:43.234Z,72.82
2022-08-29T09:52:16.209Z,72.62
2022-08-29T09:57:42.722Z,67.74
2022-08-29T10:03:11.753Z,67.12
2022-08-29T10:09:12.481Z,68.48
2022-08-29T10:15:00.234Z,69.50
2022-08-29T10:20:25.274Z,62.34
2022-08-29T10:25:50.532Z,64.65
2022-08-29T10:31:32.287Z,66.48
2022-08-29T10:36:58.731Z,67.41
2022-08-29T10:42:27.339Z,67.51
2022-08-29T10:47:55.243Z,65.33
2022-08-29T10:53:34.951Z,56.97
2022-08-29T10:59:32.785Z,55.08
2022-08-29T11:05:00.022Z,52.77
2022-08-29T11:10:35.449Z,50.44
2022-08-29T11:16:09.415Z,48.30
2022-08-29T11:21:47.897Z,49.20
2022-08-29T11:27:23.621Z,50.47
2022-08-29T11:33:03.878Z,55.38
2022-08-29T11:38:58.098Z,55.23
2022-08-29T11:44:43.181Z,57.61
2022-08-29T11:50:11.379Z,56.43
2022-08-29T11:55:50.556Z,48.70
2022-08-29T12:01:33.765Z,48.75
2022-08-29T12:07:21.331Z,48.76
2022-08-29T12:12:59.737Z,49.60
2022-08-29T12:18:33.389Z,51.32
2022-08-29T12:23:55.600Z,47.73
2022-08-29T12:29:25.065Z,47.14
2022-08-29T12:35:15.069Z,48.03
2022-08-29T12:40:57.231Z,49.68
2022-08-29T12:46:30.062Z,51.02
2022-08-29T12:51:57.390Z,50.13
2022-08-29T12:57:24.239Z,48.41
2022-08-29T13:02:53.541Z,47.12
2022-08-29T13:08:41.674Z,46.72
2022-08-29T13:14:13.025Z,45.55
2022-08-29T13:19:40.174Z,45.51
2022-08-29T13:25:10.989Z,45.76
2022-08-29T13:30:36.640Z,44.77
2022-08-29T13:36:00.520Z,43.91
2022-08-29T13:41:26.886Z,45.29
2022-08-29T13:46:51.605Z,46.51
2022-08-29T13:52:14.451Z,43.27
2022-08-29T13:57:39.635Z,41.64
2022-08-29T14:03:04.191Z,40.97
2022-08-29T14:08:28.909Z,40.94
2022-08-29T14:13:51.675Z,41.74
2022-08-29T14:19:13.966Z,41.21
2022-08-29T14:24:37.986Z,44.63
2022-08-29T14:30:00.940Z,48.90
2022-08-29T14:35:26.824Z,48.38
2022-08-29T14:40:49.947Z,47.26
2022-08-29T14:46:12.855Z,43.28
2022-08-29T14:51:35.740Z,43.99
2022-08-29T14:57:00.151Z,46.68
2022-08-29T15:02:23.447Z,47.74
2022-08-29T15:07:46.611Z,49.82
2022-08-29T15:13:11.099Z,45.44
2022-08-29T15:19:22.362Z,45.19
2022-08-29T15:23:57.978Z,46.18
2022-08-29T15:29:21.595Z,45.86
2022-08-29T15:34:44.722Z,49.04
2022-08-29T15:40:12.422Z,49.17
2022-08-29T15:45:32.665Z,49.35
2022-08-29T15:50:54.967Z,48.93
2022-08-29T15:56:17.580Z,50.50
2022-08-29T16:01:47.169Z,51.95
2022-08-29T16:07:12.757Z,51.22
2022-08-29T16:12:35.541Z,51.64
2022-08-29T16:17:57.788Z,51.82
2022-08-29T16:23:20.825Z,52.44
2022-08-29T16:28:45.001Z,52.64
2022-08-29T16:34:08.220Z,53.89
2022-08-29T16:39:30.893Z,53.82
2022-08-29T16:44:54.352Z,54.67
2022-08-29T16:50:18.448Z,55.42
2022-08-29T16:55:41.758Z,55.75
2022-08-29T17:01:04.392Z,55.32
2022-08-29T17:06:29.216Z,57.41
2022-08-29T17:11:51.603Z,59.89
2022-08-29T17:17:14.645Z,61.46
2022-08-29T17:22:37.457Z,62.41
2022-08-29T17:28:17.082Z,63.99
2022-08-29T17:33:27.299Z,65.62
2022-08-29T17:38:51.825Z,67.25
2022-08-29T17:44:15.081Z,68.46
2022-08-29T17:49:37.641Z,69.36
2022-08-29T17:55:03.776Z,70.31
2022-08-29T18:00:25.874Z,71.29
2022-08-29T18:05:48.754Z,72.64
2022-08-29T18:11:11.069Z,73.77
2022-08-29T18:16:33.763Z,74.77
2022-08-29T18:21:57.913Z,75.24
2022-08-29T18:27:20.505Z,75.68
2022-08-29T18:32:43.124Z,75.83
2022-08-29T18:38:05.317Z,75.93
2022-08-29T18:43:28.514Z,76.52
2022-08-29T18:48:51.610Z,77.41
2022-08-29T18:54:18.939Z,78.15
2022-08-29T18:59:38.542Z,79.04
2022-08-29T19:05:01.248Z,80.18
2022-08-29T19:10:26.468Z,81.30
2022-08-29T19:15:51.073Z,82.24
2022-08-29T19:21:14.026Z,83.24
2022-08-29T19:26:45.343Z,84.64
2022-08-29T19:32:08.545Z,85.73
2022-08-29T19:37:30.782Z,87.19
2022-08-29T19:42:55.481Z,88.25
2022-08-29T19:48:19.306Z,89.46
2022-08-29T19:53:42.654Z,90.76
2022-08-29T19:59:06.393Z,91.48
2022-08-29T20:04:29.339Z,92.05
2022-08-29T20:09:52.705Z,92.46
2022-08-29T20:15:16.303Z,92.51
2022-08-29T20:20:42.215Z,93.78
2022-08-29T20:26:05.349Z,95.66
2022-08-29T20:31:28.330Z,97.75
2022-08-29T20:37:08.902Z,100.00
2022-08-29T20:42:33.374Z,100.00
2022-08-29T20:47:57.236Z,100.00
2022-08-29T20:53:32.134Z,100.00
2022-08-29T20:58:44.276Z,100.00
2022-08-29T21:04:24.565Z,100.00
2022-08-29T21:09:50.851Z,100.00
2022-08-29T21:15:13.939Z,100.00
2022-08-29T21:20:36.195Z,100.00
2022-08-29T21:26:02.721Z,100.00
2022-08-29T21:31:26.623Z,100.00
2022-08-29T21:36:50.469Z,100.00
2022-08-29T21:42:12.803Z,100.00
2022-08-29T21:47:35.447Z,100.00
2022-08-29T21:52:58.710Z,100.00
2022-08-29T21:58:21.592Z,100.00
2022-08-29T22:03:50.087Z,100.00
2022-08-29T22:09:10.648Z,100.00
2022-08-29T22:14:51.634Z,100.00
2022-08-29T22:20:14.010Z,100.00
2022-08-29T22:25:37.038Z,100.00
2022-08-29T22:30:59.245Z,100.00
2022-08-29T22:36:23.361Z,100.00
2022-08-29T22:41:47.924Z,100.00
2022-08-29T22:47:10.241Z,100.00
2022-08-29T22:52:33.472Z,100.00
2022-08-29T22:57:55.696Z,100.00
2022-08-29T23:03:18.925Z,100.00
2022-08-29T23:08:41.701Z,100.00
2022-08-29T23:14:05.552Z,100.00
2022-08-29T23:19:29.348Z,100.00
2022-08-29T23:24:57.748Z,100.00
2022-08-29T23:30:20.180Z,100.00
2022-08-29T23:35:42.438Z,100.00
2022-08-29T23:41:04.681Z,100.00
2022-08-29T23:46:27.671Z,100.00
2022-08-29T23:51:49.887Z,100.00
2022-08-29T23:57:12.427Z,100.00
